createdAt,value
2022-09-21T00:01:06.568Z,45.20
2022-09-21T00:06:12.942Z,44.50
2022-09-21T00:11:18.644Z,45.30
2022-09-21T00:16:21.306Z,45.00
2022-09-21T00:21:24.487Z,44.70
2022-09-21T00:26:27.890Z,45.00
2022-09-21T00:31:31.450Z,44.90
2022-09-21T00:36:34.546Z,45.00
2022-09-21T00:41:36.787Z,45.10
2022-09-21T00:46:40.318Z,45.70
2022-09-21T00:51:43.041Z,45.70
2022-09-21T00:56:45.576Z,45.60
2022-09-21T01:01:48.337Z,45.50
2022-09-21T01:06:50.899Z,45.60
2022-09-21T01:28:21.590Z,45.60
2022-09-21T01:33:32.490Z,45.40
2022-09-21T01:38:43.435Z,45.80
2022-09-21T01:43:52.903Z,45.90
2022-09-21T01:49:00.035Z,45.80
2022-09-21T01:54:09.084Z,45.90
2022-09-21T01:59:28.181Z,45.80
2022-09-21T02:04:31.247Z,45.70
2022-09-21T02:09:35.481Z,46.10
2022-09-21T02:14:38.535Z,46.20
2022-09-21T02:19:49.362Z,46.20
2022-09-21T02:24:57.891Z,46.70
2022-09-21T02:35:42.391Z,46.60
2022-09-21T02:40:56.840Z,46.60
2022-09-21T02:46:15.303Z,46.70
2022-09-21T02:51:23.131Z,46.60
2022-09-21T02:56:26.800Z,47.10
2022-09-21T03:01:29.646Z,46.80
2022-09-21T03:06:31.990Z,47.10
2022-09-21T03:11:36.135Z,47.60
2022-09-21T03:16:38.984Z,47.70
2022-09-21T03:21:44.614Z,47.40
2022-09-21T03:26:47.254Z,47.40
2022-09-21T03:31:49.426Z,47.50
2022-09-21T03:36:51.993Z,48.10
2022-09-21T03:41:56.994Z,47.90
2022-09-21T03:46:59.241Z,48.00
2022-09-21T03:52:02.243Z,48.00
2022-09-21T03:57:04.658Z,48.00
2022-09-21T04:02:06.843Z,48.20
2022-09-21T04:07:09.180Z,48.70
2022-09-21T04:12:11.442Z,49.30
2022-09-21T04:17:13.832Z,48.70
2022-09-21T04:22:16.034Z,48.50
2022-09-21T04:27:18.343Z,48.50
2022-09-21T04:32:20.871Z,48.70
2022-09-21T04:37:23.425Z,49.00
2022-09-21T04:42:26.014Z,48.90
2022-09-21T04:47:30.756Z,49.10
2022-09-21T04:52:33.039Z,48.70
2022-09-21T04:57:35.866Z,49.20
2022-09-21T05:02:38.098Z,49.00
2022-09-21T05:07:40.344Z,48.90
2022-09-21T05:12:43.406Z,49.20
2022-09-21T05:17:46.726Z,49.30
2022-09-21T05:22:48.959Z,49.50
2022-09-21T05:27:51.256Z,49.70
2022-09-21T05:33:03.803Z,50.10
2022-09-21T05:38:15.877Z,49.90
2022-09-21T05:43:18.435Z,50.30
2022-09-21T05:48:27.084Z,50.60
2022-09-21T06:04:38.791Z,50.70
2022-09-21T06:09:43.217Z,50.50
2022-09-21T06:14:45.860Z,50.60
2022-09-21T06:19:48.093Z,50.60
2022-09-21T06:24:50.338Z,50.80
2022-09-21T06:29:53.133Z,51.10
2022-09-21T06:34:55.376Z,51.40
2022-09-21T06:39:57.558Z,51.60
2022-09-21T06:44:59.744Z,50.70
2022-09-21T06:50:02.020Z,51.50
2022-09-21T06:55:04.589Z,52.80
2022-09-21T07:00:09.380Z,50.70
2022-09-21T07:05:12.243Z,47.90
2022-09-21T07:10:19.928Z,47.00
2022-09-21T07:15:23.743Z,45.40
2022-09-21T07:20:26.012Z,43.40
2022-09-21T07:25:29.129Z,42.00
2022-09-21T07:30:31.379Z,38.20
2022-09-21T07:35:34.202Z,39.30
2022-09-21T07:40:36.524Z,38.50
2022-09-21T07:45:38.915Z,38.80
2022-09-21T07:50:42.161Z,39.80
2022-09-21T07:55:45.163Z,39.60
2022-09-21T08:00:47.399Z,39.70
2022-09-21T08:05:49.692Z,39.20
2022-09-21T08:10:54.588Z,38.30
2022-09-21T08:15:59.994Z,38.00
2022-09-21T08:21:02.283Z,37.70
2022-09-21T08:26:06.802Z,37.80
2022-09-21T08:31:10.781Z,38.10
2022-09-21T08:36:13.377Z,37.20
2022-09-21T08:46:29.077Z,36.50
2022-09-21T08:51:35.467Z,36.70
2022-09-21T08:57:03.524Z,36.30
2022-09-21T09:02:31.435Z,36.20
2022-09-21T09:08:13.504Z,36.10
2022-09-21T09:18:44.472Z,35.90
2022-09-21T09:23:54.250Z,35.20
2022-09-21T09:29:04.752Z,35.60
2022-09-21T09:34:29.434Z,36.70
2022-09-21T09:39:32.144Z,37.10
2022-09-21T09:50:06.929Z,37.10
2022-09-21T09:55:34.240Z,36.80
2022-09-21T10:00:36.521Z,37.60
2022-09-21T10:05:38.732Z,38.70
2022-09-21T10:10:41.894Z,39.60
2022-09-21T10:15:50.472Z,39.20
2022-09-21T10:26:11.019Z,39.60
2022-09-21T10:36:28.632Z,41.10
2022-09-21T10:41:30.939Z,42.80
2022-09-21T10:46:35.411Z,42.90
2022-09-21T10:51:37.807Z,42.50
2022-09-21T10:56:53.179Z,42.70
2022-09-21T11:01:57.983Z,42.90
2022-09-21T11:17:52.995Z,43.40
2022-09-21T11:23:20.670Z,43.50
2022-09-21T11:28:40.886Z,43.90
2022-09-21T11:34:13.850Z,44.00
2022-09-21T11:45:06.905Z,44.90
2022-09-21T12:01:12.169Z,44.50
2022-09-21T12:06:41.559Z,48.80
2022-09-21T12:11:51.100Z,49.00
2022-09-21T12:38:23.549Z,52.50
2022-09-21T12:43:39.611Z,51.70
2022-09-21T12:48:45.179Z,51.50
2022-09-21T12:53:51.284Z,50.70
2022-09-21T13:09:46.916Z,50.40
2022-09-21T13:14:52.594Z,54.30
2022-09-21T13:30:32.584Z,57.20
2022-09-21T13:41:45.533Z,55.50
2022-09-21T13:46:52.475Z,55.60
2022-09-21T14:02:54.891Z,56.30
2022-09-21T14:08:02.303Z,57.20
2022-09-21T14:13:23.305Z,56.40
2022-09-21T14:18:37.483Z,56.40
2022-09-21T14:23:40.198Z,56.20
2022-09-21T14:28:47.394Z,56.40
2022-09-21T14:33:55.087Z,54.90
2022-09-21T14:39:02.770Z,54.30
2022-09-21T14:44:05.577Z,53.80
2022-09-21T14:49:47.606Z,53.80
2022-09-21T15:21:29.346Z,52.30
2022-09-21T15:26:34.531Z,52.10
2022-09-21T15:31:40.020Z,52.10
2022-09-21T15:36:43.641Z,51.90
2022-09-21T15:41:49.955Z,51.20
2022-09-21T15:47:00.342Z,51.40
2022-09-21T15:52:13.010Z,51.30
2022-09-21T15:57:39.131Z,51.80
2022-09-21T16:02:50.814Z,51.80
2022-09-21T16:08:07.641Z,52.10
2022-09-21T16:13:42.846Z,51.90
2022-09-21T16:24:36.758Z,51.50
2022-09-21T16:29:43.086Z,51.50
2022-09-21T16:34:48.287Z,51.60
2022-09-21T16:39:55.050Z,51.50
2022-09-21T16:44:57.923Z,51.50
2022-09-21T16:50:01.851Z,51.50
2022-09-21T16:55:04.350Z,51.20
2022-09-21T17:00:21.994Z,51.20
2022-09-21T17:05:24.787Z,51.50
2022-09-21T17:10:32.493Z,51.60
2022-09-21T17:15:36.410Z,51.50
2022-09-21T17:20:42.619Z,51.50
2022-09-21T17:25:45.716Z,51.40
2022-09-21T17:30:48.492Z,51.30
2022-09-21T17:35:55.733Z,51.00
2022-09-21T17:41:01.332Z,51.10
2022-09-21T17:51:36.254Z,51.10
2022-09-21T17:56:47.624Z,51.40
2022-09-21T18:01:50.160Z,51.60
2022-09-21T18:06:53.564Z,51.30
2022-09-21T18:12:29.310Z,50.90
2022-09-21T18:17:52.342Z,51.40
2022-09-21T18:28:17.532Z,51.60
2022-09-21T18:38:44.538Z,51.30
2022-09-21T18:54:20.274Z,51.60
2022-09-21T18:59:23.118Z,51.40
2022-09-21T19:04:26.252Z,51.50
2022-09-21T19:30:49.177Z,51.40
2022-09-21T19:35:52.160Z,51.60
2022-09-21T19:41:00.880Z,51.60
2022-09-21T19:51:19.838Z,51.40
2022-09-21T19:56:42.466Z,51.50
2022-09-21T20:01:53.681Z,51.70
2022-09-21T20:07:03.287Z,51.70
2022-09-21T20:12:21.215Z,51.30
2022-09-21T20:17:47.507Z,51.30
2022-09-21T20:22:50.270Z,51.10
2022-09-21T20:33:07.616Z,51.10
2022-09-21T20:38:10.896Z,51.10
2022-09-21T20:43:14.253Z,51.00
2022-09-21T20:48:16.829Z,50.80
2022-09-21T20:53:19.636Z,51.00
2022-09-21T20:58:22.166Z,51.00
2022-09-21T21:03:24.449Z,50.40
2022-09-21T21:08:26.711Z,50.70
2022-09-21T21:13:30.284Z,50.50
2022-09-21T21:18:32.542Z,50.60
2022-09-21T21:23:55.071Z,50.60
2022-09-21T21:28:57.617Z,50.60
2022-09-21T21:33:59.950Z,50.60
2022-09-21T21:39:02.147Z,51.00
2022-09-21T21:44:04.511Z,50.60
2022-09-21T21:49:07.131Z,50.70
2022-09-21T21:54:09.344Z,50.70
2022-09-21T21:59:17.458Z,50.70
2022-09-21T22:04:24.431Z,50.80
2022-09-21T22:09:29.310Z,50.70
2022-09-21T22:14:31.844Z,50.70
2022-09-21T22:19:34.248Z,50.90
2022-09-21T22:24:36.618Z,50.70
2022-09-21T22:29:39.622Z,50.90
2022-09-21T22:34:41.866Z,50.90
2022-09-21T22:39:44.083Z,50.80
2022-09-21T22:44:46.283Z,51.00
2022-09-21T22:49:48.506Z,51.00
2022-09-21T22:54:50.671Z,51.10
2022-09-21T22:59:52.872Z,51.00
2022-09-21T23:04:55.508Z,51.60
2022-09-21T23:09:57.765Z,51.60
2022-09-21T23:15:00.006Z,51.70
2022-09-21T23:20:02.839Z,51.70
2022-09-21T23:25:06.312Z,51.40
2022-09-21T23:30:09.071Z,51.80
2022-09-21T23:35:11.260Z,51.90
2022-09-21T23:40:13.554Z,51.70
2022-09-21T23:45:15.923Z,51.90
2022-09-21T23:50:18.156Z,51.80
2022-09-21T23:55:20.319Z,51.80
